Time;durP1;ratioP1;P1;durP2;ratioP2;P2;SDS_P1;SDS_P2;PMS_P1;PMS_P2;Temp;Humidity;BMP_temperature;BMP_pressure;BME280_temperature;BME280_humidity;BME280_pressure;Samples;Min_cycle;Max_cycle;Signal;HPM_P1;HPM_P2
2021/01/12 00:00:24;;;;;;;58.17;32.70;;;;;;;-6.99;100.00;95891.56;1022817;29;20594;-66
2021/01/12 00:00:54;;;;;;;59.95;33.67;;;;;;;-7.00;100.00;95895.06;1023639;28;20377;-66
2021/01/12 00:01:25;;;;;;;60.00;31.57;;;;;;;-6.98;100.00;95890.59;1026558;28;20042;-66
2021/01/12 00:01:55;;;;;;;61.27;32.00;;;;;;;-6.98;100.00;95888.06;1023109;28;20023;-65
2021/01/12 00:02:26;;;;;;;56.77;32.00;;;;;;;-6.93;100.00;95890.97;1018798;29;20099;-66
2021/01/12 00:02:57;;;;;;;60.10;32.90;;;;;;;-7.01;100.00;95883.25;1024143;28;20050;-67
2021/01/12 00:03:27;;;;;;;61.38;32.42;;;;;;;-6.92;100.00;95890.00;1019108;29;20024;-66
2021/01/12 00:03:58;;;;;;;62.63;34.13;;;;;;;-6.93;100.00;95888.41;1014903;29;20036;-66
2021/01/12 00:04:30;;;;;;;56.73;31.83;;;;;;;-6.97;100.00;95882.03;1018320;29;20035;-67
2021/01/12 00:05:00;;;;;;;62.28;33.45;;;;;;;-6.84;100.00;95893.56;1011260;29;20021;-66
2021/01/12 00:05:31;;;;;;;59.57;33.20;;;;;;;-6.82;100.00;95901.88;1011080;29;20039;-66
2021/01/12 00:06:01;;;;;;;56.07;30.90;;;;;;;-6.88;100.00;95898.97;1015428;29;20492;-66
2021/01/12 00:06:32;;;;;;;54.40;28.30;;;;;;;-6.79;100.00;95904.91;1010233;29;20131;-65
2021/01/12 00:07:03;;;;;;;58.27;31.50;;;;;;;-6.82;100.00;95906.97;1014930;29;20024;-66
2021/01/12 00:07:33;;;;;;;57.10;30.13;;;;;;;-6.76;100.00;95916.56;1015165;29;20056;-67
2021/01/12 00:08:07;;;;;;;54.30;30.20;;;;;;;-6.76;100.00;95919.94;1014713;29;20703;-66
2021/01/12 00:08:38;;;;;;;58.33;30.15;;;;;;;-6.79;100.00;95922.78;1023567;28;20035;-68
2021/01/12 00:09:08;;;;;;;56.33;28.97;;;;;;;-6.78;100.00;95919.25;1019449;29;20729;-66
2021/01/12 00:09:39;;;;;;;58.60;30.97;;;;;;;-6.84;100.00;95916.50;1017410;29;20039;-67
2021/01/12 00:10:10;;;;;;;55.57;31.07;;;;;;;-6.80;100.00;95920.38;1022723;29;20027;-65
2021/01/12 00:10:40;;;;;;;54.87;29.57;;;;;;;-6.83;100.00;95921.47;1026663;28;20070;-65
2021/01/12 00:11:11;;;;;;;61.83;32.50;;;;;;;-6.82;100.00;95919.72;1023333;28;20111;-67
2021/01/12 00:11:41;;;;;;;56.07;31.47;;;;;;;-6.82;100.00;95925.63;1023174;28;20078;-65
2021/01/12 00:12:12;;;;;;;63.10;35.07;;;;;;;-6.86;100.00;95923.53;1018882;29;20423;-66
2021/01/12 00:12:42;;;;;;;66.40;33.60;;;;;;;-6.88;100.00;95927.00;1022875;29;20086;-66
2021/01/12 00:13:13;;;;;;;59.77;31.90;;;;;;;-6.89;100.00;95925.41;1026231;28;20023;-66
2021/01/12 00:13:43;;;;;;;60.77;32.63;;;;;;;-6.95;100.00;95923.47;1031222;28;20057;-67
2021/01/12 00:14:32;;;;;;;62.97;32.83;;;;;;;-6.96;100.00;95924.41;1028144;28;20046;-66
2021/01/12 00:15:04;;;;;;;61.72;32.47;;;;;;;-6.98;100.00;95923.75;1023096;29;20023;-66
2021/01/12 00:15:34;;;;;;;64.80;32.42;;;;;;;-6.98;100.00;95923.75;1019121;29;20046;-66
2021/01/12 00:16:05;;;;;;;62.13;32.77;;;;;;;-6.98;100.00;95925.50;1021608;29;20058;-67
2021/01/12 00:16:35;;;;;;;65.43;33.27;;;;;;;-7.02;100.00;95917.34;1020951;28;20262;-65
2021/01/12 00:17:06;;;;;;;62.47;34.47;;;;;;;-7.10;100.00;95904.56;1022908;28;20023;-67
2021/01/12 00:17:37;;;;;;;66.60;34.47;;;;;;;-7.03;100.00;95918.31;1023060;28;20066;-68
2021/01/12 00:18:07;;;;;;;63.30;34.80;;;;;;;-7.05;100.00;95921.97;1022875;29;20275;-66
2021/01/12 00:18:38;;;;;;;60.60;33.77;;;;;;;-7.03;100.00;95915.78;1025207;28;20030;-67
2021/01/12 00:19:08;;;;;;;61.27;33.70;;;;;;;-7.05;100.00;95917.66;1022721;28;20099;-67
2021/01/12 00:19:39;;;;;;;67.00;33.70;;;;;;;-7.06;100.00;95923.72;1023075;29;20031;-67
2021/01/12 00:20:10;;;;;;;59.03;32.50;;;;;;;-7.04;100.00;95928.66;1019914;28;20023;-66
2021/01/12 00:20:41;;;;;;;63.28;33.67;;;;;;;-7.04;100.00;95924.38;1023323;28;20041;-67
2021/01/12 00:21:11;;;;;;;64.40;34.53;;;;;;;-7.03;100.00;95920.06;1027133;28;20095;-66
2021/01/12 00:21:42;;;;;;;61.60;33.63;;;;;;;-7.02;100.00;95927.56;1030733;28;20524;-67
2021/01/12 00:22:15;;;;;;;59.77;33.00;;;;;;;-7.01;100.00;95921.50;1031080;28;20034;-68
2021/01/12 00:22:46;;;;;;;59.10;32.15;;;;;;;-7.04;100.00;95916.72;1026998;28;20437;-66
2021/01/12 00:23:16;;;;;;;66.03;35.17;;;;;;;-7.02;100.00;95916.56;1026794;28;20038;-67
2021/01/12 00:23:47;;;;;;;67.37;33.97;;;;;;;-7.01;100.00;95918.16;1025848;28;20631;-66
2021/01/12 00:24:17;;;;;;;60.60;33.63;;;;;;;-7.05;100.00;95916.84;1023036;28;20032;-66
2021/01/12 00:24:48;;;;;;;62.27;34.33;;;;;;;-7.07;100.00;95906.03;1023060;29;20027;-67
2021/01/12 00:25:19;;;;;;;63.88;32.72;;;;;;;-7.00;100.00;95917.22;1016181;29;20021;-67
2021/01/12 00:25:49;;;;;;;59.00;32.40;;;;;;;-6.99;100.00;95914.50;1022969;29;20031;-67
2021/01/12 00:26:20;;;;;;;62.30;33.03;;;;;;;-7.04;100.00;95903.97;1018298;29;20031;-66
2021/01/12 00:26:50;;;;;;;64.27;33.50;;;;;;;-6.97;100.00;95914.38;1018666;29;20027;-66
2021/01/12 00:27:21;;;;;;;64.10;34.53;;;;;;;-6.96;100.00;95909.13;1018948;28;20035;-68
2021/01/12 00:27:52;;;;;;;60.73;33.77;;;;;;;-6.95;100.00;95912.47;1023218;28;20047;-67
2021/01/12 00:28:22;;;;;;;64.50;34.37;;;;;;;-6.95;100.00;95912.47;1023153;28;20345;-67
2021/01/12 00:28:53;;;;;;;61.53;34.43;;;;;;;-6.95;100.00;95910.72;1029825;28;20747;-66
2021/01/12 00:29:23;;;;;;;60.20;33.10;;;;;;;-6.93;100.00;95916.47;1027776;28;20022;-66
2021/01/12 00:29:54;;;;;;;61.77;33.93;;;;;;;-7.01;100.00;95896.00;1028368;28;20510;-67
2021/01/12 00:30:24;;;;;;;61.80;33.20;;;;;;;-6.92;100.00;95917.28;1024004;28;20034;-68
2021/01/12 00:30:55;;;;;;;60.50;32.40;;;;;;;-7.01;100.00;95898.56;1020622;29;20024;-65
2021/01/12 00:31:25;;;;;;;68.20;34.80;;;;;;;-6.96;100.00;95905.78;1020223;29;20070;-66
2021/01/12 00:31:56;;;;;;;63.67;35.47;;;;;;;-6.89;100.00;95917.78;1024301;28;20031;-67
2021/01/12 00:32:27;;;;;;;61.37;31.83;;;;;;;-7.13;100.00;95871.72;1020361;29;20361;-66
2021/01/12 00:32:58;;;;;;;63.05;33.00;;;;;;;-6.85;100.00;95912.38;1024415;29;20516;-65
2021/01/12 00:33:28;;;;;;;61.13;32.57;;;;;;;-6.90;100.00;95903.44;1024145;28;20034;-66
2021/01/12 00:33:59;;;;;;;63.60;34.17;;;;;;;-6.83;100.00;95905.38;1020454;29;20479;-67
2021/01/12 00:34:29;;;;;;;56.23;31.13;;;;;;;-6.83;100.00;95911.28;1024664;28;20087;-65
2021/01/12 00:35:00;;;;;;;59.23;31.77;;;;;;;-6.83;100.00;95905.38;1024528;28;20057;-65
2021/01/12 00:35:30;;;;;;;62.53;33.10;;;;;;;-6.80;100.00;95907.63;1025312;28;20078;-66
2021/01/12 00:36:05;;;;;;;64.00;35.03;;;;;;;-6.77;100.00;95907.31;1028449;28;20018;-67
2021/01/12 00:36:46;;;;;;;58.45;32.40;;;;;;;-6.77;100.00;95907.31;1024210;28;20029;-65
2021/01/12 00:37:17;;;;;;;63.22;32.63;;;;;;;-6.73;100.00;95911.19;1023850;28;20110;-68
2021/01/12 00:37:47;;;;;;;61.08;34.22;;;;;;;-6.73;100.00;95904.31;1022274;29;20034;-66
2021/01/12 00:38:18;;;;;;;59.47;32.63;;;;;;;-6.71;100.00;95910.06;1012463;29;20111;-66
2021/01/12 00:38:48;;;;;;;62.87;32.67;;;;;;;-6.71;100.00;95911.81;1013034;29;20020;-64
2021/01/12 00:39:19;;;;;;;62.33;31.60;;;;;;;-6.83;100.00;95882.44;1016556;29;20053;-66
2021/01/12 00:39:50;;;;;;;63.00;34.20;;;;;;;-6.68;100.00;95908.97;1020414;28;20027;-67
2021/01/12 00:40:21;;;;;;;60.63;31.93;;;;;;;-6.65;100.00;95906.09;1020417;29;20044;-66
2021/01/12 00:40:51;;;;;;;61.33;34.30;;;;;;;-6.65;100.00;95903.56;1023675;28;20019;-66
2021/01/12 00:41:22;;;;;;;64.03;34.87;;;;;;;-6.62;100.00;95897.34;1024444;28;20035;-66
2021/01/12 00:41:55;;;;;;;62.03;33.27;;;;;;;-6.60;100.00;95898.03;1028460;28;20038;-66
2021/01/12 00:42:26;;;;;;;61.13;34.22;;;;;;;-6.58;100.00;95898.66;1035997;28;20025;-67
2021/01/12 00:42:56;;;;;;;58.67;33.33;;;;;;;-6.57;100.00;95900.25;1028402;28;20034;-66
2021/01/12 00:43:27;;;;;;;62.20;34.37;;;;;;;-6.58;100.00;95899.44;1028729;28;20026;-66
2021/01/12 00:43:57;;;;;;;60.93;33.90;;;;;;;-6.57;100.00;95901.06;1031811;28;20680;-67
2021/01/12 00:44:28;;;;;;;60.10;33.13;;;;;;;-6.55;100.00;95901.69;1032564;28;20104;-67
2021/01/12 00:44:58;;;;;;;60.67;34.03;;;;;;;-6.55;100.00;95898.34;1032371;28;20041;-65
2021/01/12 00:45:29;;;;;;;65.70;35.20;;;;;;;-6.53;100.00;95902.34;1032368;28;20497;-66
2021/01/12 00:45:59;;;;;;;59.63;32.07;;;;;;;-6.51;100.00;95900.44;1023957;28;20027;-66
2021/01/12 00:46:30;;;;;;;62.47;33.83;;;;;;;-6.44;100.00;95900.63;1023829;28;20491;-65
2021/01/12 00:47:00;;;;;;;54.57;30.33;;;;;;;-6.39;100.00;95900.19;1028427;28;20031;-66
2021/01/12 00:47:32;;;;;;;58.07;32.73;;;;;;;-6.39;100.00;95903.53;1026350;28;20039;-66
2021/01/12 00:48:02;;;;;;;63.97;33.28;;;;;;;-6.49;100.00;95878.13;1027983;28;20034;-66
2021/01/12 00:48:33;;;;;;;61.57;32.80;;;;;;;-6.50;100.00;95879.09;1024398;29;20030;-69
2021/01/12 00:49:03;;;;;;;58.33;33.00;;;;;;;-6.36;100.00;95897.31;1016756;29;20014;-67
2021/01/12 00:49:34;;;;;;;56.57;33.23;;;;;;;-6.36;100.00;95894.78;1024348;28;20020;-66
2021/01/12 00:50:05;;;;;;;62.80;33.80;;;;;;;-6.34;100.00;95891.09;1020281;29;20128;-66
2021/01/12 00:50:36;;;;;;;59.53;33.17;;;;;;;-6.31;100.00;95895.09;1016784;29;20087;-66
2021/01/12 00:51:06;;;;;;;61.73;33.73;;;;;;;-6.39;100.00;95877.22;1016494;29;20448;-66
2021/01/12 00:51:37;;;;;;;58.70;32.57;;;;;;;-6.38;100.00;95873.69;1016610;29;20032;-65
2021/01/12 00:52:09;;;;;;;65.45;35.25;;;;;;;-6.28;100.00;95890.47;1016316;29;20036;-65
2021/01/12 00:52:40;;;;;;;59.78;33.28;;;;;;;-6.28;100.00;95887.13;1022183;28;20098;-66
2021/01/12 00:53:10;;;;;;;60.63;33.40;;;;;;;-6.33;100.00;95884.25;1028692;28;20529;-66
2021/01/12 00:53:40;;;;;;;60.50;33.37;;;;;;;-6.30;100.00;95886.50;1028683;28;20015;-66
2021/01/12 00:54:12;;;;;;;59.10;33.73;;;;;;;-6.29;100.00;95886.34;1030485;28;20019;-67
2021/01/12 00:54:43;;;;;;;59.13;32.88;;;;;;;-6.28;100.00;95890.47;1024310;29;20025;-66
2021/01/12 00:55:13;;;;;;;62.90;34.10;;;;;;;-6.28;100.00;95884.56;1020409;29;20032;-67
2021/01/12 00:55:44;;;;;;;56.37;31.20;;;;;;;-6.25;100.00;95886.81;1020226;28;20035;-64
2021/01/12 00:56:15;;;;;;;60.07;32.03;;;;;;;-6.24;100.00;95890.97;1028249;28;20550;-65
2021/01/12 00:56:45;;;;;;;56.45;32.42;;;;;;;-6.26;100.00;95890.34;1032063;28;20070;-66
2021/01/12 00:57:16;;;;;;;57.30;31.63;;;;;;;-6.25;100.00;95889.38;1028182;28;20090;-66
2021/01/12 00:57:46;;;;;;;57.37;33.10;;;;;;;-6.24;100.00;95896.06;1022742;29;20486;-65
2021/01/12 00:58:16;;;;;;;56.63;33.13;;;;;;;-6.24;100.00;95884.09;1024348;28;20039;-67
2021/01/12 00:58:47;;;;;;;61.60;33.40;;;;;;;-6.22;100.00;95889.88;1024195;28;20566;-65
2021/01/12 00:59:18;;;;;;;62.87;32.80;;;;;;;-6.22;100.00;95889.06;1026448;28;20015;-64
2021/01/12 00:59:48;;;;;;;60.03;33.63;;;;;;;-6.20;100.00;95884.63;1028715;28;20027;-69
2021/01/12 01:00:19;;;;;;;58.40;33.97;;;;;;;-6.21;100.00;95890.66;1028286;28;20034;-65
2021/01/12 01:00:50;;;;;;;54.65;31.33;;;;;;;-6.19;100.00;95888.78;1028268;28;20069;-65
2021/01/12 01:01:20;;;;;;;60.70;34.20;;;;;;;-6.17;100.00;95885.13;1028054;28;20026;-66
2021/01/12 01:01:50;;;;;;;59.97;33.33;;;;;;;-6.19;100.00;95886.22;1028282;28;20086;-68
2021/01/12 01:02:21;;;;;;;64.23;34.57;;;;;;;-6.16;100.00;95888.47;1024761;28;20035;-65
2021/01/12 01:02:51;;;;;;;63.53;33.47;;;;;;;-6.22;100.00;95871.19;1026607;28;20035;-67
2021/01/12 01:03:22;;;;;;;51.37;31.00;;;;;;;-6.12;100.00;95889.75;1020723;29;20031;-66
2021/01/12 01:03:52;;;;;;;59.20;32.97;;;;;;;-6.15;100.00;95882.38;1020317;29;20040;-66
2021/01/12 01:04:23;;;;;;;53.00;30.97;;;;;;;-6.21;100.00;95870.25;1019945;29;20031;-67
2021/01/12 01:04:53;;;;;;;64.03;33.87;;;;;;;-6.10;100.00;95876.81;1024548;29;20034;-67
2021/01/12 01:05:24;;;;;;;55.70;32.87;;;;;;;-6.10;100.00;95885.28;1020401;29;20028;-66
2021/01/12 01:05:54;;;;;;;56.33;32.70;;;;;;;-6.07;100.00;95882.44;1020440;29;20114;-67
2021/01/12 01:06:25;;;;;;;60.13;33.40;;;;;;;-6.05;100.00;95877.94;1019709;28;20048;-66
2021/01/12 01:06:56;;;;;;;59.37;32.90;;;;;;;-6.06;100.00;95878.13;1028133;28;20033;-67
2021/01/12 01:07:26;;;;;;;55.47;30.80;;;;;;;-6.03;100.00;95873.50;1028611;28;20062;-65
2021/01/12 01:07:56;;;;;;;62.97;33.90;;;;;;;-6.03;100.00;95873.50;1021015;29;20030;-67
2021/01/12 01:08:28;;;;;;;59.13;32.97;;;;;;;-6.00;100.00;95880.84;1024210;29;20685;-69
2021/01/12 01:08:58;;;;;;;61.65;35.20;;;;;;;-6.00;100.00;95877.47;1020294;29;20028;-67
2021/01/12 01:09:29;;;;;;;55.93;32.63;;;;;;;-5.99;100.00;95879.09;1023948;28;20506;-70
2021/01/12 01:09:59;;;;;;;57.83;33.07;;;;;;;-5.98;100.00;95876.38;1024212;29;20034;-67
2021/01/12 01:10:30;;;;;;;53.77;32.27;;;;;;;-5.99;100.00;95873.97;1024841;28;20019;-65
2021/01/12 01:11:03;;;;;;;58.50;33.07;;;;;;;-5.95;100.00;95876.06;1023399;28;20015;-67
2021/01/12 01:11:39;;;;;;;54.92;31.42;;;;;;;-6.03;100.00;95865.84;1015719;29;20039;-66
2021/01/12 01:12:12;;;;;;;53.67;30.83;;;;;;;-5.90;100.00;95882.41;1016111;29;20039;-66
2021/01/12 01:12:42;;;;;;;57.17;33.25;;;;;;;-5.92;100.00;95887.69;1024026;29;20156;-66
2021/01/12 01:13:13;;;;;;;62.27;32.53;;;;;;;-5.95;100.00;95875.25;1024133;29;20040;-67
2021/01/12 01:13:43;;;;;;;55.10;31.17;;;;;;;-6.08;100.00;95860.38;1022962;28;20036;-66
2021/01/12 01:14:15;;;;;;;54.80;30.67;;;;;;;-5.96;100.00;95871.91;1026104;28;20422;-67
2021/01/12 01:14:45;;;;;;;56.85;32.30;;;;;;;-5.98;100.00;95875.56;1024294;29;20404;-67
2021/01/12 01:15:16;;;;;;;54.60;30.77;;;;;;;-5.97;100.00;95888.19;1022758;29;20716;-69
2021/01/12 01:15:47;;;;;;;63.57;34.83;;;;;;;-5.95;100.00;95893.16;1024562;28;20078;-66
2021/01/12 01:16:17;;;;;;;55.43;32.17;;;;;;;-5.95;100.00;95893.94;1027925;28;20073;-65
2021/01/12 01:16:48;;;;;;;55.10;32.30;;;;;;;-5.99;100.00;95890.09;1028110;28;20524;-66
2021/01/12 01:17:18;;;;;;;56.83;32.00;;;;;;;-5.99;100.00;95894.41;1027933;28;20022;-66
2021/01/12 01:17:48;;;;;;;60.50;33.73;;;;;;;-6.03;100.00;95904.16;1028061;28;20037;-66
2021/01/12 01:18:19;;;;;;;60.23;33.40;;;;;;;-6.04;100.00;95907.63;1032629;28;20026;-66
2021/01/12 01:18:49;;;;;;;58.67;32.60;;;;;;;-6.07;100.00;95897.75;1028234;28;20030;-66
2021/01/12 01:19:20;;;;;;;58.80;32.50;;;;;;;-6.09;100.00;95898.84;1027389;28;20026;-68
2021/01/12 01:19:50;;;;;;;56.00;32.33;;;;;;;-6.10;100.00;95898.06;1028517;28;20042;-66
2021/01/12 01:20:21;;;;;;;58.63;33.87;;;;;;;-6.11;100.00;95900.75;1032335;28;20026;-67
2021/01/12 01:20:51;;;;;;;60.40;34.37;;;;;;;-6.12;100.00;95896.59;1036306;28;20029;-65
2021/01/12 01:21:22;;;;;;;59.47;32.77;;;;;;;-6.11;100.00;95895.66;1028172;28;20514;-67
2021/01/12 01:21:52;;;;;;;60.63;31.77;;;;;;;-6.16;100.00;95898.69;1025056;28;20030;-66
2021/01/12 01:22:23;;;;;;;59.30;33.37;;;;;;;-6.14;100.00;95908.72;1028244;28;20022;-66
2021/01/12 01:22:54;;;;;;;56.60;31.98;;;;;;;-6.14;100.00;95896.75;1024748;28;20099;-67
2021/01/12 01:23:24;;;;;;;61.27;35.13;;;;;;;-6.19;100.00;95896.44;1033116;28;20031;-66
2021/01/12 01:23:54;;;;;;;61.27;33.53;;;;;;;-6.25;100.00;95894.47;1028234;28;20030;-66
2021/01/12 01:24:25;;;;;;;65.50;34.57;;;;;;;-6.13;100.00;95910.34;1024216;28;20031;-66
2021/01/12 01:24:55;;;;;;;61.70;35.13;;;;;;;-6.16;100.00;95916.56;1027517;28;20808;-64
2021/01/12 01:25:26;;;;;;;58.00;32.33;;;;;;;-6.15;100.00;95914.78;1016357;29;20043;-67
2021/01/12 01:25:56;;;;;;;62.80;34.37;;;;;;;-6.19;100.00;95912.53;1016329;29;20066;-67
2021/01/12 01:26:27;;;;;;;60.83;34.63;;;;;;;-6.19;100.00;95920.19;1015667;29;20032;-66
2021/01/12 01:26:58;;;;;;;63.07;34.80;;;;;;;-6.20;100.00;95917.81;1016300;29;20024;-66
2021/01/12 01:27:28;;;;;;;64.60;35.40;;;;;;;-6.29;100.00;95908.53;1020169;29;20062;-66
2021/01/12 01:27:58;;;;;;;60.30;34.87;;;;;;;-6.22;100.00;95917.94;1020331;29;20027;-66
2021/01/12 01:28:29;;;;;;;62.20;33.60;;;;;;;-6.24;100.00;95919.06;1020818;28;20594;-67
2021/01/12 01:28:59;;;;;;;65.53;34.63;;;;;;;-6.19;100.00;95929.63;1020275;29;20031;-67
2021/01/12 01:29:30;;;;;;;64.07;35.10;;;;;;;-6.20;100.00;95928.81;1020509;28;20024;-68
2021/01/12 01:30:00;;;;;;;58.67;33.63;;;;;;;-6.19;100.00;95927.06;1028197;28;20499;-67
2021/01/12 01:30:31;;;;;;;64.67;35.47;;;;;;;-6.20;100.00;95923.72;1028093;28;20026;-66
2021/01/12 01:31:01;;;;;;;64.57;35.30;;;;;;;-6.18;100.00;95919.25;1024334;29;20023;-65
2021/01/12 01:31:36;;;;;;;59.93;33.47;;;;;;;-6.17;100.00;95923.41;1024120;29;20052;-65
2021/01/12 01:32:09;;;;;;;58.65;33.17;;;;;;;-6.15;100.00;95923.25;1028445;28;20038;-67
2021/01/12 01:32:40;;;;;;;64.75;36.17;;;;;;;-6.13;100.00;95918.78;1029150;28;20512;-65
2021/01/12 01:33:10;;;;;;;71.57;38.20;;;;;;;-6.20;100.00;95902.50;1028245;28;20026;-66
2021/01/12 01:33:41;;;;;;;59.67;34.00;;;;;;;-6.15;100.00;95902.81;1023561;28;20023;-66
2021/01/12 01:34:11;;;;;;;61.63;35.37;;;;;;;-6.07;100.00;95922.47;1020123;29;20059;-65
2021/01/12 01:34:42;;;;;;;57.40;33.63;;;;;;;-6.07;100.00;95918.19;1020380;29;20027;-67
2021/01/12 01:35:12;;;;;;;56.37;32.30;;;;;;;-6.05;100.00;95916.25;1020016;29;20533;-66
2021/01/12 01:35:43;;;;;;;60.83;33.63;;;;;;;-6.07;100.00;95907.97;1012557;29;20032;-66
2021/01/12 01:36:14;;;;;;;63.00;34.50;;;;;;;-6.04;100.00;95922.16;1020197;29;20090;-66
2021/01/12 01:36:44;;;;;;;60.33;33.83;;;;;;;-6.00;100.00;95924.28;1016304;29;20112;-67
2021/01/12 01:37:15;;;;;;;62.70;35.80;;;;;;;-6.08;100.00;95906.34;1019991;28;20483;-68
2021/01/12 01:37:46;;;;;;;63.60;35.17;;;;;;;-6.08;100.00;95911.47;1020527;29;20095;-66
2021/01/12 01:38:16;;;;;;;59.20;34.43;;;;;;;-5.97;100.00;95918.03;1024159;28;20028;-66
2021/01/12 01:38:47;;;;;;;55.97;32.63;;;;;;;-5.95;100.00;95922.03;1027946;28;20023;-65
2021/01/12 01:39:17;;;;;;;61.40;34.97;;;;;;;-5.99;100.00;95922.50;1032169;28;20019;-68
2021/01/12 01:39:48;;;;;;;59.07;31.40;;;;;;;-5.94;100.00;95921.06;1032236;28;20041;-67
2021/01/12 01:40:21;;;;;;;57.77;33.27;;;;;;;-5.95;100.00;95919.47;1028342;28;20058;-68
2021/01/12 01:40:59;;;;;;;63.67;34.88;;;;;;;-6.06;100.00;95904.44;1035741;28;20048;-66
2021/01/12 01:41:29;;;;;;;58.95;34.08;;;;;;;-5.99;100.00;95910.53;1026929;28;20446;-66
2021/01/12 01:42:00;;;;;;;59.33;33.43;;;;;;;-5.98;100.00;95922.34;1016272;29;20035;-67
2021/01/12 01:42:31;;;;;;;60.13;33.20;;;;;;;-5.99;100.00;95920.75;1011732;29;20087;-67
2021/01/12 01:43:01;;;;;;;60.40;32.50;;;;;;;-6.09;100.00;95904.75;1012183;29;20104;-67
2021/01/12 01:43:32;;;;;;;60.43;33.80;;;;;;;-6.07;100.00;95912.25;1012001;29;20020;-68
2021/01/12 01:44:05;;;;;;;60.70;34.05;;;;;;;-6.04;100.00;95917.84;1018477;29;20047;-68
2021/01/12 01:44:35;;;;;;;59.85;33.60;;;;;;;-6.03;100.00;95916.91;1015574;29;20036;-65
2021/01/12 01:45:08;;;;;;;60.63;34.43;;;;;;;-6.01;100.00;95911.63;1015729;29;20337;-66
2021/01/12 01:45:38;;;;;;;57.67;33.72;;;;;;;-6.03;100.00;95908.47;1018961;28;20175;-67
2021/01/12 01:46:09;;;;;;;62.23;35.77;;;;;;;-6.04;100.00;95906.84;1023739;28;20110;-67
2021/01/12 01:46:42;;;;;;;63.37;34.73;;;;;;;-6.05;100.00;95911.16;1022834;29;20027;-66
2021/01/12 01:47:13;;;;;;;62.65;34.38;;;;;;;-6.05;100.00;95908.59;1024650;28;20023;-66
2021/01/12 01:47:44;;;;;;;58.40;32.17;;;;;;;-6.07;100.00;95900.31;1027921;28;20718;-67
2021/01/12 01:48:15;;;;;;;58.97;34.25;;;;;;;-6.06;100.00;95904.44;1027797;28;20039;-66
2021/01/12 01:48:46;;;;;;;56.67;30.20;;;;;;;-6.04;100.00;95899.97;1027506;28;20413;-66
2021/01/12 01:49:17;;;;;;;57.35;31.20;;;;;;;-6.00;100.00;95896.19;1023283;28;20027;-66
2021/01/12 01:49:47;;;;;;;55.53;32.27;;;;;;;-6.10;100.00;95887.03;1019699;29;20040;-67
2021/01/12 01:50:21;;;;;;;53.83;29.83;;;;;;;-6.05;100.00;95884.81;1015875;29;20024;-66
2021/01/12 01:50:52;;;;;;;57.05;32.88;;;;;;;-5.99;100.00;95892.66;1019205;29;20036;-65
2021/01/12 01:51:22;;;;;;;56.17;32.60;;;;;;;-5.98;100.00;95891.69;1019593;29;20031;-65
2021/01/12 01:51:53;;;;;;;57.60;33.53;;;;;;;-5.96;100.00;95889.78;1020668;28;20023;-66
2021/01/12 01:52:25;;;;;;;58.23;32.87;;;;;;;-5.94;100.00;95882.75;1023378;28;20019;-66
2021/01/12 01:52:56;;;;;;;54.55;32.45;;;;;;;-5.95;100.00;95881.16;1019989;29;20035;-66
2021/01/12 01:53:26;;;;;;;58.47;32.23;;;;;;;-6.03;100.00;95862.47;1023545;29;20031;-66
2021/01/12 01:53:56;;;;;;;52.73;30.83;;;;;;;-6.02;100.00;95867.44;1023381;28;20027;-66
2021/01/12 01:54:28;;;;;;;56.07;31.47;;;;;;;-5.96;100.00;95879.56;1023422;29;20061;-65
2021/01/12 01:54:58;;;;;;;57.40;31.58;;;;;;;-5.90;100.00;95883.25;1015643;29;20040;-64
2021/01/12 01:55:29;;;;;;;54.30;31.00;;;;;;;-6.02;100.00;95875.09;1019722;29;20467;-65
2021/01/12 01:56:01;;;;;;;55.03;31.37;;;;;;;-5.93;100.00;95874.16;1019028;29;20753;-65
2021/01/12 01:56:31;;;;;;;56.83;31.45;;;;;;;-5.91;100.00;95873.97;1019038;29;20071;-66
2021/01/12 01:57:02;;;;;;;56.77;32.27;;;;;;;-5.90;100.00;95870.47;1023747;29;20090;-66
2021/01/12 01:57:32;;;;;;;55.17;32.77;;;;;;;-5.88;100.00;95871.09;1022036;28;20058;-67
2021/01/12 01:58:03;;;;;;;52.93;30.20;;;;;;;-5.86;100.00;95874.28;1028048;28;20019;-66
2021/01/12 01:58:43;;;;;;;53.03;31.08;;;;;;;-5.87;100.00;95866.78;1023478;29;20038;-68
2021/01/12 01:59:13;;;;;;;52.65;30.02;;;;;;;-5.84;100.00;95874.13;1020747;28;20465;-66
2021/01/12 01:59:44;;;;;;;53.37;31.07;;;;;;;-5.83;100.00;95873.19;1023566;29;20035;-66
2021/01/12 02:00:17;;;;;;;53.47;31.33;;;;;;;-5.87;100.00;95861.66;1024628;28;20027;-65
2021/01/12 02:00:48;;;;;;;49.65;29.55;;;;;;;-5.81;100.00;95871.25;1023345;29;20023;-66
2021/01/12 02:01:18;;;;;;;58.65;32.00;;;;;;;-5.84;100.00;95869.81;1023343;29;20510;-66
2021/01/12 02:01:49;;;;;;;52.37;30.07;;;;;;;-5.89;100.00;95853.38;1019543;29;20035;-66
2021/01/12 02:02:19;;;;;;;54.07;31.73;;;;;;;-5.80;100.00;95867.75;1015812;29;20048;-66
2021/01/12 02:03:08;;;;;;;54.07;30.37;;;;;;;-5.78;100.00;95870.94;1019187;29;20058;-67
2021/01/12 02:03:49;;;;;;;52.00;29.75;;;;;;;-5.73;100.00;95866.97;1018030;29;20028;-66
2021/01/12 02:04:25;;;;;;;53.47;27.75;;;;;;;-5.72;100.00;95875.44;1027204;28;20121;-67
2021/01/12 02:04:57;;;;;;;52.75;29.08;;;;;;;-5.71;100.00;95877.03;1031658;28;20421;-66
2021/01/12 02:05:28;;;;;;;51.47;26.75;;;;;;;-5.73;100.00;95877.19;1028225;28;20569;-66
2021/01/12 02:06:02;;;;;;;55.67;31.42;;;;;;;-5.75;100.00;95878.31;1022864;28;20394;-64
2021/01/12 02:06:32;;;;;;;54.08;30.48;;;;;;;-5.75;100.00;95885.97;1022908;29;20513;-68
2021/01/12 02:07:03;;;;;;;52.93;29.77;;;;;;;-5.84;100.00;95867.25;1024652;28;20035;-67
2021/01/12 02:07:34;;;;;;;51.10;29.23;;;;;;;-5.83;100.00;95868.09;1027727;28;20075;-67
2021/01/12 02:08:19;;;;;;;51.90;30.93;;;;;;;-5.77;100.00;95877.66;1027250;28;20030;-67
2021/01/12 02:09:02;;;;;;;53.15;28.98;;;;;;;-5.77;100.00;95877.66;1021521;29;20028;-67
2021/01/12 02:09:47;;;;;;;51.33;29.65;;;;;;;-5.80;100.00;95870.28;1028084;28;20093;-65
2021/01/12 02:10:18;;;;;;;48.15;25.83;;;;;;;-5.78;100.00;95870.94;1027303;28;20026;-66
2021/01/12 02:10:49;;;;;;;53.73;30.33;;;;;;;-5.73;100.00;95878.97;1023452;29;20434;-68
2021/01/12 02:11:19;;;;;;;56.67;29.27;;;;;;;-5.79;100.00;95865.03;1029003;28;20102;-66
2021/01/12 02:11:55;;;;;;;57.07;30.60;;;;;;;-5.75;100.00;95871.44;1023665;29;20087;-66
2021/01/12 02:12:32;;;;;;;53.40;29.48;;;;;;;-5.76;100.00;95863.94;1023259;29;20514;-66
2021/01/12 02:13:02;;;;;;;51.28;28.60;;;;;;;-5.75;100.00;95871.44;1019279;29;20120;-66
2021/01/12 02:13:33;;;;;;;51.03;29.63;;;;;;;-5.78;100.00;95855.63;1023304;28;20031;-66
2021/01/12 02:14:04;;;;;;;52.03;29.60;;;;;;;-5.77;100.00;95857.22;1023347;29;20030;-66
2021/01/12 02:14:38;;;;;;;51.40;30.27;;;;;;;-5.75;100.00;95860.41;1018167;29;20415;-66
2021/01/12 02:15:09;;;;;;;53.83;32.33;;;;;;;-5.77;100.00;95858.03;1023471;29;20035;-66
2021/01/12 02:15:39;;;;;;;58.47;32.43;;;;;;;-5.89;100.00;95838.06;1019319;29;20123;-66
2021/01/12 02:16:10;;;;;;;55.93;29.90;;;;;;;-5.78;100.00;95850.50;1022337;29;20042;-65
2021/01/12 02:16:41;;;;;;;53.70;30.53;;;;;;;-5.89;100.00;95838.06;1018421;29;20033;-68
2021/01/12 02:17:11;;;;;;;52.53;31.20;;;;;;;-5.78;100.00;95858.19;1015912;29;20031;-66
2021/01/12 02:17:42;;;;;;;52.13;30.37;;;;;;;-5.82;100.00;95856.91;1011519;29;20041;-66
2021/01/12 02:18:12;;;;;;;55.00;32.53;;;;;;;-5.83;100.00;95852.75;1017966;29;20065;-66
2021/01/12 02:18:46;;;;;;;52.20;31.43;;;;;;;-5.83;100.00;95847.66;1019874;29;20539;-67
2021/01/12 02:19:21;;;;;;;54.05;30.73;;;;;;;-5.75;100.00;95856.09;1023882;28;20055;-66
2021/01/12 02:19:52;;;;;;;52.92;31.02;;;;;;;-5.75;100.00;95860.41;1024185;28;20031;-66
2021/01/12 02:20:25;;;;;;;56.80;29.10;;;;;;;-5.81;100.00;95840.59;1023463;29;20422;-66
2021/01/12 02:20:56;;;;;;;56.15;29.52;;;;;;;-5.77;100.00;95857.22;1018109;29;20032;-66
2021/01/12 02:21:27;;;;;;;54.43;30.70;;;;;;;-5.85;100.00;95837.56;1023298;29;20035;-67
2021/01/12 02:22:05;;;;;;;54.03;30.67;;;;;;;-5.75;100.00;95861.22;1019328;29;20027;-67
2021/01/12 02:22:35;;;;;;;55.70;31.50;;;;;;;-5.75;100.00;95857.88;1015802;29;20115;-66